Time;durP1;ratioP1;P1;durP2;ratioP2;P2;SDS_P1;SDS_P2;PMS_P1;PMS_P2;Temp;Humidity;BMP_temperature;BMP_pressure;BME280_temperature;BME280_humidity;BME280_pressure;Samples;Min_cycle;Max_cycle;Signal;HPM_P1;HPM_P2
2021/07/19 08:36:21;;;;;;;10.90;5.60;;;;;;;23.84;72.91;97785.41;1890622;76;22747;-62
2021/07/19 08:38:49;;;;;;;8.03;4.92;;;;;;;23.98;71.48;97782.75;1861426;77;20964;-64
2021/07/19 08:41:16;;;;;;;8.33;4.83;;;;;;;24.12;71.23;97782.86;1859881;77;21104;-61
2021/07/19 08:43:43;;;;;;;6.83;4.72;;;;;;;24.11;69.32;97781.30;1859103;77;20864;-64
2021/07/19 08:46:10;;;;;;;10.03;5.90;;;;;;;24.02;69.29;97778.11;1858036;77;21208;-60
2021/07/19 08:48:38;;;;;;;7.83;5.60;;;;;;;23.90;69.62;97777.63;1850276;76;21019;-65
2021/07/19 08:51:06;;;;;;;13.18;5.75;;;;;;;23.76;70.47;97783.81;1831191;77;20887;-66
2021/07/19 08:53:36;;;;;;;10.95;6.05;;;;;;;23.82;69.87;97789.11;1829611;77;21470;-63
2021/07/19 08:56:07;;;;;;;14.23;5.62;;;;;;;23.95;69.92;97783.54;1845057;77;21363;-64
2021/07/19 08:58:34;;;;;;;9.73;5.95;;;;;;;24.10;69.56;97789.30;1861503;77;20950;-62
2021/07/19 09:01:02;;;;;;;9.53;5.37;;;;;;;24.24;69.52;97788.00;1827770;77;21865;-63
2021/07/19 09:03:30;;;;;;;10.32;5.85;;;;;;;24.35;67.92;97788.81;1860842;77;20898;-61
2021/07/19 09:05:57;;;;;;;10.10;5.42;;;;;;;24.35;67.08;97790.19;1861681;77;21031;-58
2021/07/19 09:08:24;;;;;;;12.05;5.90;;;;;;;24.38;66.83;97788.05;1861417;77;21072;-61
2021/07/19 09:10:51;;;;;;;11.22;6.10;;;;;;;24.50;66.68;97792.40;1859047;77;20950;-61
2021/07/19 09:13:19;;;;;;;7.90;5.00;;;;;;;24.62;67.03;97780.31;1782322;80;21439;-62
2021/07/19 09:15:57;;;;;;;7.60;4.95;;;;;;;24.72;66.21;97778.98;1823675;78;20959;-65
2021/07/19 09:18:25;;;;;;;8.20;4.87;;;;;;;24.72;65.70;97779.56;1791013;80;21053;-65
2021/07/19 09:20:52;;;;;;;10.65;5.22;;;;;;;24.61;66.36;97770.55;1807802;78;20963;-63
2021/07/19 09:23:29;;;;;;;9.83;5.00;;;;;;;24.58;66.95;97771.31;1791072;80;20837;-64
2021/07/19 09:25:57;;;;;;;19.37;6.85;;;;;;;24.62;67.77;97772.09;1789617;80;20931;-65
2021/07/19 09:28:29;;;;;;;11.15;5.30;;;;;;;24.79;68.17;97760.44;1791145;80;21452;-64
2021/07/19 09:31:05;;;;;;;9.98;5.80;;;;;;;25.09;67.36;97756.75;1823832;78;21484;-61
2021/07/19 09:33:33;;;;;;;10.15;6.03;;;;;;;25.39;66.59;97757.75;1807493;78;21044;-60
2021/07/19 09:36:01;;;;;;;10.65;6.17;;;;;;;25.59;65.76;97760.30;1820496;78;20867;-61
2021/07/19 09:38:29;;;;;;;27.90;10.75;;;;;;;25.73;65.08;97755.58;1818273;78;21506;-62
2021/07/19 09:41:00;;;;;;;259.55;65.52;;;;;;;25.79;64.56;97751.23;1816962;78;20982;-66
2021/07/19 09:43:31;;;;;;;15.48;7.47;;;;;;;25.85;65.35;97739.28;1817796;78;21781;-66
2021/07/19 09:46:07;;;;;;;8.80;5.60;;;;;;;26.02;65.14;97742.56;1784979;80;20928;-65
2021/07/19 09:48:38;;;;;;;11.18;5.60;;;;;;;26.14;63.86;97735.89;1854296;77;20950;-60
2021/07/19 09:51:05;;;;;;;8.63;5.70;;;;;;;26.19;63.25;97736.85;1829182;77;20963;-65
2021/07/19 09:53:41;;;;;;;8.95;5.72;;;;;;;26.22;62.86;97725.84;1825156;77;20860;-61
2021/07/19 09:56:19;;;;;;;9.43;5.37;;;;;;;26.27;63.43;97728.76;1854897;77;21125;-61
2021/07/19 09:58:50;;;;;;;8.65;5.20;;;;;;;26.25;62.66;97721.52;1826486;77;20883;-62
2021/07/19 10:01:28;;;;;;;9.65;5.25;;;;;;;26.21;62.90;97719.39;1840754;77;20920;-62
2021/07/19 10:04:09;;;;;;;7.60;5.53;;;;;;;26.17;63.03;97715.27;1831688;77;20974;-65
2021/07/19 10:06:38;;;;;;;8.85;5.67;;;;;;;26.16;62.82;97715.69;1853401;77;21563;-62
2021/07/19 10:09:11;;;;;;;7.87;5.17;;;;;;;26.08;62.80;97715.48;1850228;77;21481;-63
2021/07/19 10:11:41;;;;;;;7.65;5.42;;;;;;;26.05;63.00;97709.44;1848319;77;20963;-64
2021/07/19 10:14:08;;;;;;;7.50;5.28;;;;;;;26.05;63.21;97695.72;1853177;77;21552;-64
2021/07/19 10:16:37;;;;;;;8.18;5.40;;;;;;;26.05;63.21;97695.72;1838226;77;20922;-60
2021/07/19 10:19:04;;;;;;;8.78;5.28;;;;;;;26.18;63.76;97699.59;1858047;77;21038;-65
2021/07/19 10:21:34;;;;;;;10.40;5.12;;;;;;;26.35;63.13;97689.13;1849471;77;21121;-65
2021/07/19 10:24:05;;;;;;;9.23;5.60;;;;;;;26.44;62.98;97689.45;1857095;77;21009;-65
2021/07/19 10:26:32;;;;;;;10.25;5.30;;;;;;;26.57;61.95;97690.54;1858200;77;20976;-61
2021/07/19 10:28:59;;;;;;;10.95;5.67;;;;;;;26.57;61.95;97690.54;1849913;77;21042;-64
2021/07/19 10:31:26;;;;;;;12.15;5.65;;;;;;;26.54;62.12;97685.88;1842483;77;20962;-62
2021/07/19 10:33:55;;;;;;;7.15;6.00;;;;;;;26.60;62.35;97687.58;1858086;77;21109;-64
2021/07/19 10:36:33;;;;;;;10.93;5.33;;;;;;;26.65;62.13;97674.80;1850868;77;20942;-60
2021/07/19 10:39:05;;;;;;;8.65;5.37;;;;;;;26.72;62.21;97676.91;1849102;77;20860;-60
2021/07/19 10:41:31;;;;;;;8.50;4.95;;;;;;;26.72;62.21;97676.91;1849321;77;20888;-61
2021/07/19 10:44:01;;;;;;;10.25;5.55;;;;;;;26.80;61.92;97678.47;1791918;77;20880;-64
2021/07/19 10:46:28;;;;;;;8.75;5.10;;;;;;;26.79;62.47;97673.36;1848110;77;21876;-64
